sensor_id;sensor_type;location;lat;lon;timestamp;pressure;altitude;pressure_sealevel;temperature;humidity
11808;BME280;5961;42.640;23.380;2023-02-01T00:02:09;94087.81;;;1.50;90.31
11808;BME280;5961;42.640;23.380;2023-02-01T00:04:36;94088.84;;;1.49;90.58
11808;BME280;5961;42.640;23.380;2023-02-01T00:07:03;94084.91;;;1.52;90.38
11808;BME280;5961;42.640;23.380;2023-02-01T00:09:29;94049.19;;;1.32;90.50
11808;BME280;5961;42.640;23.380;2023-02-01T00:11:57;94042.44;;;1.26;90.04
11808;BME280;5961;42.640;23.380;2023-02-01T00:14:27;94087.50;;;1.52;89.96
11808;BME280;5961;42.640;23.380;2023-02-01T00:16:54;94068.94;;;1.48;90.40
11808;BME280;5961;42.640;23.380;2023-02-01T00:19:20;94078.84;;;1.56;90.26
11808;BME280;5961;42.640;23.380;2023-02-01T00:21:47;94077.31;;;1.50;89.58
11808;BME280;5961;42.640;23.380;2023-02-01T00:24:14;94068.94;;;1.48;89.30
11808;BME280;5961;42.640;23.380;2023-02-01T00:26:42;94083.56;;;1.54;89.33
11808;BME280;5961;42.640;23.380;2023-02-01T00:29:12;94068.22;;;1.43;89.39
11808;BME280;5961;42.640;23.380;2023-02-01T00:31:39;94076.06;;;1.43;89.09
11808;BME280;5961;42.640;23.380;2023-02-01T00:34:06;94061.19;;;1.38;88.79
11808;BME280;5961;42.640;23.380;2023-02-01T00:36:34;94072.88;;;1.51;88.82
11808;BME280;5961;42.640;23.380;2023-02-01T00:39:00;94072.59;;;1.52;88.38
11808;BME280;5961;42.640;23.380;2023-02-01T00:41:27;94047.03;;;1.39;88.16
11808;BME280;5961;42.640;23.380;2023-02-01T00:43:54;94054.25;;;1.52;87.89
11808;BME280;5961;42.640;23.380;2023-02-01T00:46:22;94057.38;;;1.54;87.25
11808;BME280;5961;42.640;23.380;2023-02-01T00:48:50;94037.22;;;1.21;86.84
11808;BME280;5961;42.640;23.380;2023-02-01T00:51:18;94066.31;;;1.48;86.34
11808;BME280;5961;42.640;23.380;2023-02-01T00:53:46;94071.06;;;1.46;85.58
11808;BME280;5961;42.640;23.380;2023-02-01T00:56:13;93999.16;;;1.00;85.50
11808;BME280;5961;42.640;23.380;2023-02-01T00:58:40;94053.94;;;1.25;85.40
11808;BME280;5961;42.640;23.380;2023-02-01T01:01:11;94052.34;;;1.29;85.28
11808;BME280;5961;42.640;23.380;2023-02-01T01:03:41;94032.94;;;1.01;84.80
11808;BME280;5961;42.640;23.380;2023-02-01T01:06:11;94047.66;;;1.26;84.47
11808;BME280;5961;42.640;23.380;2023-02-01T01:08:39;94018.81;;;0.97;84.84
11808;BME280;5961;42.640;23.380;2023-02-01T01:11:06;94047.19;;;1.19;84.48
11808;BME280;5961;42.640;23.380;2023-02-01T01:13:33;94091.94;;;1.23;84.25
11808;BME280;5961;42.640;23.380;2023-02-01T01:16:00;94068.66;;;1.16;84.09
11808;BME280;5961;42.640;23.380;2023-02-01T01:18:29;94067.09;;;1.20;83.31
11808;BME280;5961;42.640;23.380;2023-02-01T01:20:57;94037.41;;;0.96;83.61
11808;BME280;5961;42.640;23.380;2023-02-01T01:23:24;94066.34;;;1.09;83.18
11808;BME280;5961;42.640;23.380;2023-02-01T01:25:51;94050.41;;;1.06;83.06
11808;BME280;5961;42.640;23.380;2023-02-01T01:28:18;94055.34;;;1.13;82.25
11808;BME280;5961;42.640;23.380;2023-02-01T01:30:46;94054.56;;;1.12;81.94
11808;BME280;5961;42.640;23.380;2023-02-01T01:33:13;94053.25;;;1.15;82.11
11808;BME280;5961;42.640;23.380;2023-02-01T01:35:40;94046.16;;;1.15;81.59
11808;BME280;5961;42.640;23.380;2023-02-01T01:38:09;94070.78;;;1.14;81.55
11808;BME280;5961;42.640;23.380;2023-02-01T01:40:37;94068.31;;;1.28;80.62
11808;BME280;5961;42.640;23.380;2023-02-01T01:43:12;94009.97;;;0.88;80.43
11808;BME280;5961;42.640;23.380;2023-02-01T01:45:39;94092.72;;;1.23;79.82
11808;BME280;5961;42.640;23.380;2023-02-01T01:48:09;94075.44;;;1.22;79.39
11808;BME280;5961;42.640;23.380;2023-02-01T01:50:41;94074.09;;;1.25;79.65
11808;BME280;5961;42.640;23.380;2023-02-01T01:53:12;94081.16;;;1.24;79.41
11808;BME280;5961;42.640;23.380;2023-02-01T01:55:43;94055.66;;;1.06;79.68
11808;BME280;5961;42.640;23.380;2023-02-01T01:58:15;94074.69;;;1.17;79.84
11808;BME280;5961;42.640;23.380;2023-02-01T02:00:44;94095.44;;;1.08;79.81
11808;BME280;5961;42.640;23.380;2023-02-01T02:03:15;94068.16;;;1.14;79.83
11808;BME280;5961;42.640;23.380;2023-02-01T02:05:44;94077.06;;;1.13;79.98
11808;BME280;5961;42.640;23.380;2023-02-01T02:08:13;94053.31;;;1.04;79.83
11808;BME280;5961;42.640;23.380;2023-02-01T02:10:39;94067.69;;;1.07;79.91
11808;BME280;5961;42.640;23.380;2023-02-01T02:13:24;94067.44;;;1.03;80.27
11808;BME280;5961;42.640;23.380;2023-02-01T02:16:00;94066.16;;;1.01;80.04
11808;BME280;5961;42.640;23.380;2023-02-01T02:18:34;94042.13;;;0.94;80.03
11808;BME280;5961;42.640;23.380;2023-02-01T02:21:12;94053.63;;;0.98;80.46
11808;BME280;5961;42.640;23.380;2023-02-01T02:24:02;94054.94;;;0.95;80.28
11808;BME280;5961;42.640;23.380;2023-02-01T02:27:05;94046.59;;;0.88;80.45
11808;BME280;5961;42.640;23.380;2023-02-01T02:35:59;94066.28;;;0.76;79.88
11808;BME280;5961;42.640;23.380;2023-02-01T02:38:33;94034.91;;;0.81;80.36
11808;BME280;5961;42.640;23.380;2023-02-01T02:41:12;94020.16;;;0.46;80.34
11808;BME280;5961;42.640;23.380;2023-02-01T02:44:09;94048.06;;;0.61;80.86
11808;BME280;5961;42.640;23.380;2023-02-01T02:47:00;94048.06;;;0.66;80.73
11808;BME280;5961;42.640;23.380;2023-02-01T02:49:50;94050.13;;;0.69;81.25
11808;BME280;5961;42.640;23.380;2023-02-01T02:52:36;94036.78;;;0.70;81.30
11808;BME280;5961;42.640;23.380;2023-02-01T02:55:23;94047.53;;;0.69;80.63
11808;BME280;5961;42.640;23.380;2023-02-01T02:57:51;94047.00;;;0.67;80.29
11808;BME280;5961;42.640;23.380;2023-02-01T03:00:36;94036.53;;;0.72;80.42
11808;BME280;5961;42.640;23.380;2023-02-01T03:03:21;94045.91;;;0.73;80.09
11808;BME280;5961;42.640;23.380;2023-02-01T03:06:12;94033.91;;;0.67;80.52
11808;BME280;5961;42.640;23.380;2023-02-01T03:08:41;94045.94;;;0.68;79.50
11808;BME280;5961;42.640;23.380;2023-02-01T03:11:12;94065.25;;;0.77;79.56
11808;BME280;5961;42.640;23.380;2023-02-01T03:13:45;94060.53;;;0.79;78.72
11808;BME280;5961;42.640;23.380;2023-02-01T03:16:15;94063.91;;;0.84;77.80
11808;BME280;5961;42.640;23.380;2023-02-01T03:18:50;94078.56;;;0.80;77.92
11808;BME280;5961;42.640;23.380;2023-02-01T03:21:24;94063.66;;;0.81;77.82
11808;BME280;5961;42.640;23.380;2023-02-01T03:23:53;94067.72;;;0.53;77.99
11808;BME280;5961;42.640;23.380;2023-02-01T03:26:25;94090.28;;;0.88;77.52
11808;BME280;5961;42.640;23.380;2023-02-01T03:28:56;94073.06;;;0.87;77.78
11808;BME280;5961;42.640;23.380;2023-02-01T03:31:24;94098.13;;;0.93;77.42
11808;BME280;5961;42.640;23.380;2023-02-01T03:33:51;94087.66;;;0.93;77.88
11808;BME280;5961;42.640;23.380;2023-02-01T03:36:22;94045.44;;;0.61;78.04
11808;BME280;5961;42.640;23.380;2023-02-01T03:38:58;94107.31;;;0.90;78.39
11808;BME280;5961;42.640;23.380;2023-02-01T03:41:28;94097.41;;;0.82;78.25
11808;BME280;5961;42.640;23.380;2023-02-01T03:44:06;94093.44;;;0.85;78.98
11808;BME280;5961;42.640;23.380;2023-02-01T03:46:39;94086.63;;;0.89;78.89
11808;BME280;5961;42.640;23.380;2023-02-01T03:49:10;94047.28;;;0.65;79.24
11808;BME280;5961;42.640;23.380;2023-02-01T03:51:40;94100.75;;;0.93;78.83
11808;BME280;5961;42.640;23.380;2023-02-01T03:54:12;94070.44;;;0.82;79.14
11808;BME280;5961;42.640;23.380;2023-02-01T03:56:42;94075.09;;;0.95;78.96
11808;BME280;5961;42.640;23.380;2023-02-01T03:59:10;94086.06;;;0.97;78.81
11808;BME280;5961;42.640;23.380;2023-02-01T04:01:37;94055.00;;;0.90;78.64
11808;BME280;5961;42.640;23.380;2023-02-01T04:04:04;94091.78;;;1.04;78.54
11808;BME280;5961;42.640;23.380;2023-02-01T04:06:30;94086.28;;;1.05;78.37
11808;BME280;5961;42.640;23.380;2023-02-01T04:08:59;94066.78;;;0.83;78.46
11808;BME280;5961;42.640;23.380;2023-02-01T04:11:27;94077.06;;;1.13;78.05
11808;BME280;5961;42.640;23.380;2023-02-01T04:13:54;94084.88;;;1.18;78.08
11808;BME280;5961;42.640;23.380;2023-02-01T04:16:21;94099.59;;;1.14;78.15
11808;BME280;5961;42.640;23.380;2023-02-01T04:18:47;94093.28;;;1.15;78.37
11808;BME280;5961;42.640;23.380;2023-02-01T04:21:14;94087.22;;;1.20;78.65
11808;BME280;5961;42.640;23.380;2023-02-01T04:23:41;94072.63;;;1.14;79.13
11808;BME280;5961;42.640;23.380;2023-02-01T04:26:08;94069.75;;;1.10;79.79
11808;BME280;5961;42.640;23.380;2023-02-01T04:28:36;94084.13;;;1.13;80.21
11808;BME280;5961;42.640;23.380;2023-02-01T04:31:03;94077.06;;;1.13;80.40
11808;BME280;5961;42.640;23.380;2023-02-01T04:33:30;94094.59;;;1.18;81.01
11808;BME280;5961;42.640;23.380;2023-02-01T04:35:57;94112.13;;;1.17;81.16
11808;BME280;5961;42.640;23.380;2023-02-01T04:38:23;94077.06;;;1.13;81.62
11808;BME280;5961;42.640;23.380;2023-02-01T04:40:50;94063.84;;;0.94;81.63
11808;BME280;5961;42.640;23.380;2023-02-01T04:43:17;94087.53;;;1.13;82.03
11808;BME280;5961;42.640;23.380;2023-02-01T04:45:49;94054.94;;;0.95;82.77
11808;BME280;5961;42.640;23.380;2023-02-01T04:48:17;94077.06;;;1.13;82.75
11808;BME280;5961;42.640;23.380;2023-02-01T04:50:45;94037.22;;;0.87;82.93
11808;BME280;5961;42.640;23.380;2023-02-01T04:53:13;94074.75;;;1.12;82.89
11808;BME280;5961;42.640;23.380;2023-02-01T04:55:40;94086.94;;;1.21;83.39
11808;BME280;5961;42.640;23.380;2023-02-01T04:58:07;94078.63;;;1.14;83.31
11808;BME280;5961;42.640;23.380;2023-02-01T05:00:34;94102.69;;;1.16;83.71
11808;BME280;5961;42.640;23.380;2023-02-01T05:03:05;94111.47;;;0.96;83.72
11808;BME280;5961;42.640;23.380;2023-02-01T05:05:32;94087.53;;;1.13;84.49
11808;BME280;5961;42.640;23.380;2023-02-01T05:07:59;94111.59;;;1.15;84.68
11808;BME280;5961;42.640;23.380;2023-02-01T05:10:26;94054.06;;;0.66;85.21
11808;BME280;5961;42.640;23.380;2023-02-01T05:12:52;94097.50;;;1.11;85.56
11808;BME280;5961;42.640;23.380;2023-02-01T05:15:36;94112.38;;;1.16;85.76
11808;BME280;5961;42.640;23.380;2023-02-01T05:18:03;94092.88;;;0.98;85.47
11808;BME280;5961;42.640;23.380;2023-02-01T05:20:31;94109.25;;;1.14;85.65
11808;BME280;5961;42.640;23.380;2023-02-01T05:22:58;94122.56;;;1.22;85.84
11808;BME280;5961;42.640;23.380;2023-02-01T05:25:26;94133.28;;;1.26;85.77
11808;BME280;5961;42.640;23.380;2023-02-01T05:27:53;94108.97;;;1.20;85.55
11808;BME280;5961;42.640;23.380;2023-02-01T05:30:20;94103.94;;;1.29;85.58
11808;BME280;5961;42.640;23.380;2023-02-01T05:32:49;94117.25;;;1.32;85.61
11808;BME280;5961;42.640;23.380;2023-02-01T05:35:16;94127.72;;;1.32;85.72
11808;BME280;5961;42.640;23.380;2023-02-01T05:37:44;94129.81;;;1.30;85.79
11808;BME280;5961;42.640;23.380;2023-02-01T05:40:11;94149.69;;;1.36;85.59
11808;BME280;5961;42.640;23.380;2023-02-01T05:42:38;94125.38;;;1.31;85.50
11808;BME280;5961;42.640;23.380;2023-02-01T05:45:06;94111.97;;;1.37;85.87
11808;BME280;5961;42.640;23.380;2023-02-01T05:47:33;94110.94;;;1.38;85.69
11808;BME280;5961;42.640;23.380;2023-02-01T05:50:00;94126.34;;;1.45;85.25
11808;BME280;5961;42.640;23.380;2023-02-01T05:52:27;94082.31;;;1.13;84.80
11808;BME280;5961;42.640;23.380;2023-02-01T05:54:55;94096.75;;;1.44;85.02
11808;BME280;5961;42.640;23.380;2023-02-01T05:57:21;94116.63;;;1.45;84.93
11808;BME280;5961;42.640;23.380;2023-02-01T05:59:48;94103.50;;;1.50;84.02
11808;BME280;5961;42.640;23.380;2023-02-01T06:02:15;94118.69;;;1.53;83.56
11808;BME280;5961;42.640;23.380;2023-02-01T06:04:42;94108.28;;;1.43;84.10
11808;BME280;5961;42.640;23.380;2023-02-01T06:07:09;94124.38;;;1.60;83.39
11808;BME280;5961;42.640;23.380;2023-02-01T06:09:36;94131.19;;;1.61;82.92
11808;BME280;5961;42.640;23.380;2023-02-01T06:12:05;94150.81;;;1.64;82.69
11808;BME280;5961;42.640;23.380;2023-02-01T06:14:32;94091.06;;;1.32;81.92
11808;BME280;5961;42.640;23.380;2023-02-01T06:16:59;94148.44;;;1.67;82.15
11808;BME280;5961;42.640;23.380;2023-02-01T06:19:26;94137.34;;;1.76;81.59
11808;BME280;5961;42.640;23.380;2023-02-01T06:21:53;94154.41;;;1.73;81.48
11808;BME280;5961;42.640;23.380;2023-02-01T06:24:19;94137.34;;;1.76;81.41
11808;BME280;5961;42.640;23.380;2023-02-01T06:26:46;94143.38;;;1.76;81.15
11808;BME280;5961;42.640;23.380;2023-02-01T06:29:15;94135.25;;;1.78;81.09
11808;BME280;5961;42.640;23.380;2023-02-01T06:31:42;94202.84;;;1.81;80.27
11808;BME280;5961;42.640;23.380;2023-02-01T06:34:09;94140.63;;;1.57;80.48
11808;BME280;5961;42.640;23.380;2023-02-01T06:36:36;94144.09;;;1.82;80.34
11808;BME280;5961;42.640;23.380;2023-02-01T06:39:03;94135.69;;;1.85;79.97
11808;BME280;5961;42.640;23.380;2023-02-01T06:41:30;94145.13;;;1.86;79.74
11808;BME280;5961;42.640;23.380;2023-02-01T06:43:56;94148.78;;;1.90;79.60
11808;BME280;5961;42.640;23.380;2023-02-01T06:46:24;94170.53;;;1.90;79.20
11808;BME280;5961;42.640;23.380;2023-02-01T06:48:51;94150.31;;;1.91;78.67
11808;BME280;5961;42.640;23.380;2023-02-01T06:51:20;94096.16;;;1.52;78.08
11808;BME280;5961;42.640;23.380;2023-02-01T06:53:48;94174.38;;;1.98;78.58
11808;BME280;5961;42.640;23.380;2023-02-01T06:56:14;94121.50;;;1.62;78.35
11808;BME280;5961;42.640;23.380;2023-02-01T06:58:41;94156.28;;;2.01;77.73
11808;BME280;5961;42.640;23.380;2023-02-01T07:01:09;94159.16;;;2.00;78.08
11808;BME280;5961;42.640;23.380;2023-02-01T07:03:38;94151.28;;;2.00;78.00
11808;BME280;5961;42.640;23.380;2023-02-01T07:06:06;94158.28;;;2.09;77.62
11808;BME280;5961;42.640;23.380;2023-02-01T07:08:36;94172.25;;;2.05;77.75
11808;BME280;5961;42.640;23.380;2023-02-01T07:11:04;94176.41;;;2.06;77.36
11808;BME280;5961;42.640;23.380;2023-02-01T07:13:31;94187.25;;;1.94;77.21
11808;BME280;5961;42.640;23.380;2023-02-01T07:15:59;94162.84;;;1.99;77.58
11808;BME280;5961;42.640;23.380;2023-02-01T07:18:26;94183.03;;;1.98;78.16
11808;BME280;5961;42.640;23.380;2023-02-01T07:20:55;94214.19;;;2.00;77.74
11808;BME280;5961;42.640;23.380;2023-02-01T07:23:22;94196.94;;;1.94;77.79
11808;BME280;5961;42.640;23.380;2023-02-01T07:25:53;94210.59;;;1.96;78.13
11808;BME280;5961;42.640;23.380;2023-02-01T07:28:19;94200.88;;;1.96;77.70
11808;BME280;5961;42.640;23.380;2023-02-01T07:30:46;94208.47;;;1.98;77.80
11808;BME280;5961;42.640;23.380;2023-02-01T07:33:17;94216.28;;;2.03;77.58
11808;BME280;5961;42.640;23.380;2023-02-01T07:35:43;94222.31;;;2.03;77.48
11808;BME280;5961;42.640;23.380;2023-02-01T07:38:12;94211.56;;;2.00;77.33
11808;BME280;5961;42.640;23.380;2023-02-01T07:40:38;94215.22;;;2.04;77.01
11808;BME280;5961;42.640;23.380;2023-02-01T07:43:05;94195.31;;;2.03;77.32
11808;BME280;5961;42.640;23.380;2023-02-01T07:45:33;94219.66;;;2.08;77.36
11808;BME280;5961;42.640;23.380;2023-02-01T07:48:00;94232.97;;;2.12;76.25
11808;BME280;5961;42.640;23.380;2023-02-01T07:50:27;94239.25;;;2.16;76.60
11808;BME280;5961;42.640;23.380;2023-02-01T07:52:54;94245.81;;;2.13;76.27
11808;BME280;5961;42.640;23.380;2023-02-01T07:55:22;94215.66;;;2.16;76.44
11808;BME280;5961;42.640;23.380;2023-02-01T07:57:50;94222.47;;;2.17;76.50
11808;BME280;5961;42.640;23.380;2023-02-01T08:00:18;94245.22;;;2.21;76.49
11808;BME280;5961;42.640;23.380;2023-02-01T08:03:04;94251.81;;;2.19;76.11
11808;BME280;5961;42.640;23.380;2023-02-01T08:05:31;94251.00;;;2.24;75.69
11808;BME280;5961;42.640;23.380;2023-02-01T08:07:57;94195.41;;;1.93;75.69
11808;BME280;5961;42.640;23.380;2023-02-01T08:10:26;94240.16;;;2.30;75.67
11808;BME280;5961;42.640;23.380;2023-02-01T08:12:57;94211.47;;;2.15;75.62
11808;BME280;5961;42.640;23.380;2023-02-01T08:15:25;94239.13;;;2.31;75.17
11808;BME280;5961;42.640;23.380;2023-02-01T08:17:52;94223.94;;;2.28;74.40
11808;BME280;5961;42.640;23.380;2023-02-01T08:20:20;94243.31;;;2.32;74.46
11808;BME280;5961;42.640;23.380;2023-02-01T08:22:48;94253.44;;;2.44;74.69
11808;BME280;5961;42.640;23.380;2023-02-01T08:25:15;94231.00;;;2.33;74.27
11808;BME280;5961;42.640;23.380;2023-02-01T08:27:44;94248.13;;;2.54;73.50
11808;BME280;5961;42.640;23.380;2023-02-01T08:30:12;94270.22;;;2.48;72.96
11808;BME280;5961;42.640;23.380;2023-02-01T08:32:39;94245.69;;;2.57;73.18
11808;BME280;5961;42.640;23.380;2023-02-01T08:35:06;94236.13;;;2.71;73.31
11808;BME280;5961;42.640;23.380;2023-02-01T08:37:34;94249.47;;;2.75;72.55
11808;BME280;5961;42.640;23.380;2023-02-01T08:40:00;94241.81;;;2.78;72.63
11808;BME280;5961;42.640;23.380;2023-02-01T08:42:27;94254.38;;;2.82;72.89
11808;BME280;5961;42.640;23.380;2023-02-01T08:45:13;94253.28;;;2.88;72.28
11808;BME280;5961;42.640;23.380;2023-02-01T08:47:40;94121.69;;;2.28;72.12
11808;BME280;5961;42.640;23.380;2023-02-01T08:50:08;94210.22;;;2.65;71.96
11808;BME280;5961;42.640;23.380;2023-02-01T08:52:35;94226.38;;;3.01;71.48
11808;BME280;5961;42.640;23.380;2023-02-01T08:55:02;94247.81;;;3.08;72.09
11808;BME280;5961;42.640;23.380;2023-02-01T08:57:28;94227.81;;;3.12;71.44
11808;BME280;5961;42.640;23.380;2023-02-01T08:59:56;94225.19;;;3.12;70.68
11808;BME280;5961;42.640;23.380;2023-02-01T09:02:24;94231.38;;;3.21;70.07
11808;BME280;5961;42.640;23.380;2023-02-01T09:04:51;94275.63;;;3.32;69.85
11808;BME280;5961;42.640;23.380;2023-02-01T09:07:18;94248.03;;;3.35;69.54
11808;BME280;5961;42.640;23.380;2023-02-01T09:09:45;94256.84;;;3.44;69.52
11808;BME280;5961;42.640;23.380;2023-02-01T09:12:12;94229.44;;;3.50;68.98
11808;BME280;5961;42.640;23.380;2023-02-01T09:14:38;94188.00;;;3.23;69.43
11808;BME280;5961;42.640;23.380;2023-02-01T09:17:05;94235.91;;;3.58;70.00
11808;BME280;5961;42.640;23.380;2023-02-01T09:19:33;94245.28;;;3.64;69.68
11808;BME280;5961;42.640;23.380;2023-02-01T09:22:00;94226.09;;;3.63;69.49
11808;BME280;5961;42.640;23.380;2023-02-01T09:24:26;94248.47;;;3.61;69.51
11808;BME280;5961;42.640;23.380;2023-02-01T09:26:54;94237.13;;;3.65;69.13
11808;BME280;5961;42.640;23.380;2023-02-01T09:29:20;94260.91;;;3.55;69.39
11808;BME280;5961;42.640;23.380;2023-02-01T09:31:47;94237.88;;;3.66;69.09
11808;BME280;5961;42.640;23.380;2023-02-01T09:34:14;94198.97;;;3.49;69.61
11808;BME280;5961;42.640;23.380;2023-02-01T09:36:42;94243.88;;;3.71;69.42
11808;BME280;5961;42.640;23.380;2023-02-01T09:39:09;94228.28;;;3.75;69.27
11808;BME280;5961;42.640;23.380;2023-02-01T09:41:42;94237.13;;;3.65;69.06
11808;BME280;5961;42.640;23.380;2023-02-01T09:44:21;94258.22;;;3.79;68.67
11808;BME280;5961;42.640;23.380;2023-02-01T09:46:57;94223.34;;;3.73;69.08
11808;BME280;5961;42.640;23.380;2023-02-01T09:49:28;94223.59;;;3.91;68.07
11808;BME280;5961;42.640;23.380;2023-02-01T09:51:59;94273.00;;;3.94;68.05
11808;BME280;5961;42.640;23.380;2023-02-01T09:54:29;94226.66;;;3.98;66.99
11808;BME280;5961;42.640;23.380;2023-02-01T09:57:05;94221.19;;;3.94;67.62
11808;BME280;5961;42.640;23.380;2023-02-01T09:59:39;94187.47;;;3.82;66.73
11808;BME280;5961;42.640;23.380;2023-02-01T10:02:13;94220.19;;;4.09;66.14
11808;BME280;5961;42.640;23.380;2023-02-01T10:04:41;94200.81;;;4.05;65.84
11808;BME280;5961;42.640;23.380;2023-02-01T10:07:21;94215.13;;;4.12;66.04
11808;BME280;5961;42.640;23.380;2023-02-01T10:09:58;94200.50;;;4.06;66.23
11808;BME280;5961;42.640;23.380;2023-02-01T10:12:41;94198.34;;;4.08;66.07
11808;BME280;5961;42.640;23.380;2023-02-01T10:15:18;94218.25;;;4.14;65.44
11808;BME280;5961;42.640;23.380;2023-02-01T10:17:57;94196.84;;;4.21;65.77
11808;BME280;5961;42.640;23.380;2023-02-01T10:20:30;94183.63;;;4.26;64.46
11808;BME280;5961;42.640;23.380;2023-02-01T10:23:12;94213.31;;;4.26;64.96
11808;BME280;5961;42.640;23.380;2023-02-01T10:25:53;94179.31;;;4.30;64.83
11808;BME280;5961;42.640;23.380;2023-02-01T10:28:22;94132.59;;;4.08;65.47
11808;BME280;5961;42.640;23.380;2023-02-01T10:30:55;94164.91;;;4.27;64.35
11808;BME280;5961;42.640;23.380;2023-02-01T10:33:26;94187.16;;;4.35;64.70
11808;BME280;5961;42.640;23.380;2023-02-01T10:35:56;94163.38;;;4.40;65.19
11808;BME280;5961;42.640;23.380;2023-02-01T10:38:28;94174.31;;;4.47;65.19
11808;BME280;5961;42.640;23.380;2023-02-01T10:41:00;94158.00;;;4.45;64.59
11808;BME280;5961;42.640;23.380;2023-02-01T10:43:28;94175.84;;;4.48;64.39
11808;BME280;5961;42.640;23.380;2023-02-01T10:45:55;94168.47;;;4.50;64.42
11808;BME280;5961;42.640;23.380;2023-02-01T10:48:22;94153.25;;;4.47;64.12
11808;BME280;5961;42.640;23.380;2023-02-01T10:50:53;94131.81;;;4.40;63.62
11808;BME280;5961;42.640;23.380;2023-02-01T10:53:24;94173.72;;;4.64;63.26
11808;BME280;5961;42.640;23.380;2023-02-01T10:55:56;94185.06;;;4.64;63.10
11808;BME280;5961;42.640;23.380;2023-02-01T10:58:27;94162.41;;;4.63;62.93
11808;BME280;5961;42.640;23.380;2023-02-01T11:00:58;94187.19;;;4.62;62.39
11808;BME280;5961;42.640;23.380;2023-02-01T11:03:34;94152.69;;;4.50;62.89
11808;BME280;5961;42.640;23.380;2023-02-01T11:06:09;94177.06;;;4.69;62.69
11808;BME280;5961;42.640;23.380;2023-02-01T11:08:43;94174.53;;;4.64;63.59
11808;BME280;5961;42.640;23.380;2023-02-01T11:11:12;94163.59;;;4.57;62.64
11808;BME280;5961;42.640;23.380;2023-02-01T11:13:40;94170.13;;;4.73;62.45
11808;BME280;5961;42.640;23.380;2023-02-01T11:16:11;94146.25;;;4.56;62.33
11808;BME280;5961;42.640;23.380;2023-02-01T11:18:38;94184.47;;;4.81;61.45
11808;BME280;5961;42.640;23.380;2023-02-01T11:21:07;94142.66;;;4.79;62.69
11808;BME280;5961;42.640;23.380;2023-02-01T11:23:41;94059.84;;;4.17;61.46
11808;BME280;5961;42.640;23.380;2023-02-01T11:26:13;94141.47;;;4.85;62.04
11808;BME280;5961;42.640;23.380;2023-02-01T11:28:46;94168.66;;;5.08;62.24
11808;BME280;5961;42.640;23.380;2023-02-01T11:31:17;94139.56;;;5.27;61.46
11808;BME280;5961;42.640;23.380;2023-02-01T11:33:49;94121.38;;;5.39;60.35
11808;BME280;5961;42.640;23.380;2023-02-01T11:36:18;94167.03;;;5.48;60.21
11808;BME280;5961;42.640;23.380;2023-02-01T11:38:52;94143.91;;;5.59;60.35
11808;BME280;5961;42.640;23.380;2023-02-01T11:41:26;94142.75;;;5.73;59.51
11808;BME280;5961;42.640;23.380;2023-02-01T11:43:55;94135.69;;;5.82;58.62
11808;BME280;5961;42.640;23.380;2023-02-01T11:46:28;94138.19;;;6.01;59.19
11808;BME280;5961;42.640;23.380;2023-02-01T11:48:55;94176.13;;;6.14;58.34
11808;BME280;5961;42.640;23.380;2023-02-01T11:51:40;94143.59;;;6.27;58.09
11808;BME280;5961;42.640;23.380;2023-02-01T11:54:32;94160.19;;;6.19;57.15
11808;BME280;5961;42.640;23.380;2023-02-01T11:57:12;94099.72;;;6.31;57.48
11808;BME280;5961;42.640;23.380;2023-02-01T11:59:57;94114.81;;;6.39;57.28
11808;BME280;5961;42.640;23.380;2023-02-01T12:05:37;94111.47;;;6.25;56.69
11808;BME280;5961;42.640;23.380;2023-02-01T12:08:18;94105.59;;;6.28;57.03
11808;BME280;5961;42.640;23.380;2023-02-01T12:10:58;94121.03;;;6.43;56.71
11808;BME280;5961;42.640;23.380;2023-02-01T12:13:42;94145.13;;;6.50;56.62
11808;BME280;5961;42.640;23.380;2023-02-01T12:16:22;94140.44;;;6.47;56.02
11808;BME280;5961;42.640;23.380;2023-02-01T12:19:31;94106.19;;;6.55;56.22
11808;BME280;5961;42.640;23.380;2023-02-01T12:22:15;94098.91;;;6.61;56.87
11808;BME280;5961;42.640;23.380;2023-02-01T12:25:09;94117.59;;;6.73;56.66
11808;BME280;5961;42.640;23.380;2023-02-01T12:28:12;94121.31;;;6.72;55.11
11808;BME280;5961;42.640;23.380;2023-02-01T12:31:01;94080.81;;;6.85;54.90
11808;BME280;5961;42.640;23.380;2023-02-01T12:33:45;94128.22;;;6.90;55.18
11808;BME280;5961;42.640;23.380;2023-02-01T12:36:19;94132.78;;;7.15;54.61
11808;BME280;5961;42.640;23.380;2023-02-01T12:38:55;94124.44;;;7.48;54.61
11808;BME280;5961;42.640;23.380;2023-02-01T12:41:45;94103.44;;;7.60;53.05
11808;BME280;5961;42.640;23.380;2023-02-01T12:44:24;94136.56;;;7.83;52.67
11808;BME280;5961;42.640;23.380;2023-02-01T12:46:57;94090.47;;;8.10;51.55
11808;BME280;5961;42.640;23.380;2023-02-01T12:49:30;94090.41;;;8.44;50.49
11808;BME280;5961;42.640;23.380;2023-02-01T12:52:04;94091.75;;;8.59;49.33
11808;BME280;5961;42.640;23.380;2023-02-01T12:54:37;94101.53;;;8.75;49.08
11808;BME280;5961;42.640;23.380;2023-02-01T12:57:11;94125.25;;;9.01;48.38
11808;BME280;5961;42.640;23.380;2023-02-01T12:59:42;94094.97;;;9.31;47.08
11808;BME280;5961;42.640;23.380;2023-02-01T13:02:18;94163.69;;;9.24;46.51
11808;BME280;5961;42.640;23.380;2023-02-01T13:04:55;94101.47;;;9.63;45.74
11808;BME280;5961;42.640;23.380;2023-02-01T13:07:28;94093.75;;;9.91;44.63
11808;BME280;5961;42.640;23.380;2023-02-01T13:09:59;94085.50;;;10.05;45.01
11808;BME280;5961;42.640;23.380;2023-02-01T13:12:32;94103.66;;;10.35;43.36
11808;BME280;5961;42.640;23.380;2023-02-01T13:15:03;94092.53;;;10.54;43.00
11808;BME280;5961;42.640;23.380;2023-02-01T13:17:33;94084.22;;;10.68;42.24
11808;BME280;5961;42.640;23.380;2023-02-01T13:20:03;94098.84;;;10.74;41.47
11808;BME280;5961;42.640;23.380;2023-02-01T13:22:34;94096.44;;;10.69;42.06
11808;BME280;5961;42.640;23.380;2023-02-01T13:25:04;94082.38;;;10.80;41.57
11808;BME280;5961;42.640;23.380;2023-02-01T13:27:32;94097.66;;;10.83;39.63
11808;BME280;5961;42.640;23.380;2023-02-01T13:30:02;94089.44;;;10.76;40.27
11808;BME280;5961;42.640;23.380;2023-02-01T13:32:48;94084.59;;;10.78;39.44
11808;BME280;5961;42.640;23.380;2023-02-01T13:35:47;94027.03;;;10.13;40.08
11808;BME280;5961;42.640;23.380;2023-02-01T13:38:51;94114.91;;;10.20;41.00
11808;BME280;5961;42.640;23.380;2023-02-01T13:41:27;94065.00;;;9.93;41.96